HBBA/BJM METAR and TAF weather

Enter ICAO airport designator
Station Type Date Time Source
HBBA METAR 2019/05/26 14:00 UTC NOAA

HBBA 261400Z 18020KT 9999 FEW030TCU FEW035CB 29/19 Q1011 NOSIG


Station Type Date Time Source
HBBA Decoded METAR 2019/05/26 14:00 UTC NOAA

Bujumbura, Burundi (HBBA) 03-19S 029-19E 783M
May 26, 2019 - 10:00 AM EDT / 2019.05.26 1400 UTC
Wind: from the S (180 degrees) at 23 MPH (20 KT):0
Visibility: greater than 7 mile(s):0
Sky conditions: mostly clear
Weather: Cumulonimbus clouds, towering cumulus clouds observed
Temperature: 84 F (29 C)
Dew Point: 66 F (19 C)
Relative Humidity: 54%
Pressure (altimeter): 29.85 in. Hg (1011 hPa)
ob: HBBA 261400Z 18020KT 9999 FEW030TCU FEW035CB 29/19 Q1011 NOSIG
cycle: 14

Station Type Date Time Source
HBBA TAF 2019/06/16 06:55 UTC NOAA

TAF HBBA 160500Z 1606/1712 36005KT 5000HZ FEW025 SCT100
BECMG 1608/1610 18012G25KT 8000 FEW030
BECMG 1615/1617 18005KT CAVOK
BECMG 1703/1705 00000KT 5000 HZ FEW025 BKN100
BECMG 1707/1709 18010G20KT 8000 NSC

Example: see airport list